createdAt,value
2022-12-06T00:01:26.120Z,31.17
2022-12-06T00:03:56.035Z,33.55
2022-12-06T00:06:24.490Z,32.83
2022-12-06T00:08:51.829Z,31.67
2022-12-06T00:11:20.379Z,33.67
2022-12-06T00:13:47.347Z,29.42
2022-12-06T00:16:17.143Z,29.88
2022-12-06T00:18:53.530Z,29.55
2022-12-06T00:21:24.787Z,28.45
2022-12-06T00:23:57.777Z,29.95
2022-12-06T00:26:24.562Z,25.77
2022-12-06T00:28:55.784Z,27.48
2022-12-06T00:31:23.583Z,23.50
2022-12-06T00:33:52.154Z,27.00
2022-12-06T00:36:31.399Z,24.55
2022-12-06T00:39:01.622Z,24.17
2022-12-06T00:41:36.129Z,25.67
2022-12-06T00:44:02.620Z,23.83
2022-12-06T00:46:30.352Z,20.92
2022-12-06T00:48:57.806Z,26.48
2022-12-06T00:51:25.554Z,21.90
2022-12-06T00:53:58.330Z,24.98
2022-12-06T00:56:28.100Z,25.67
2022-12-06T00:58:54.928Z,24.42
2022-12-06T01:01:25.624Z,26.30
2022-12-06T01:03:57.319Z,28.08
2022-12-06T01:06:31.734Z,23.90
2022-12-06T01:08:59.611Z,23.85
2022-12-06T01:11:26.875Z,24.33
2022-12-06T01:13:55.183Z,24.13
2022-12-06T01:16:28.209Z,20.77
2022-12-06T01:18:57.278Z,24.40
2022-12-06T01:21:24.229Z,24.23
2022-12-06T01:23:57.381Z,22.90
2022-12-06T01:26:28.157Z,23.73
2022-12-06T01:28:54.816Z,26.05
2022-12-06T01:31:33.608Z,23.95
2022-12-06T01:34:02.319Z,23.63
2022-12-06T01:36:29.799Z,23.77
2022-12-06T01:38:57.911Z,21.02
2022-12-06T01:41:28.556Z,24.85
2022-12-06T01:43:56.254Z,21.70
2022-12-06T01:46:34.943Z,25.73
2022-12-06T01:49:06.029Z,25.85
2022-12-06T01:51:32.721Z,23.30
2022-12-06T01:54:00.411Z,24.92
2022-12-06T01:56:26.939Z,25.05
2022-12-06T01:58:54.796Z,21.17
2022-12-06T02:01:21.688Z,21.42
2022-12-06T02:03:51.724Z,23.50
2022-12-06T02:06:18.541Z,21.95
2022-12-06T02:08:45.864Z,24.02
2022-12-06T02:11:12.361Z,25.30
2022-12-06T02:13:39.164Z,24.85
2022-12-06T02:16:14.466Z,23.52
2022-12-06T02:18:40.947Z,23.27
2022-12-06T02:21:26.387Z,22.70
2022-12-06T02:23:58.704Z,29.83
2022-12-06T02:26:44.450Z,24.45
2022-12-06T02:29:20.257Z,25.10
2022-12-06T02:32:03.681Z,26.33
2022-12-06T02:34:33.888Z,25.85
2022-12-06T02:37:03.433Z,24.52
2022-12-06T02:39:29.897Z,23.25
2022-12-06T02:42:05.029Z,24.23
2022-12-06T02:44:42.997Z,26.05
2022-12-06T02:47:11.961Z,25.77
2022-12-06T02:49:44.914Z,25.05
2022-12-06T02:52:13.105Z,27.52
2022-12-06T02:54:40.727Z,30.75
2022-12-06T02:57:07.320Z,26.60
2022-12-06T02:59:33.811Z,26.45
2022-12-06T03:02:11.714Z,28.50
2022-12-06T03:04:58.917Z,22.15
2022-12-06T03:07:34.614Z,24.85
2022-12-06T03:10:07.076Z,24.55
2022-12-06T03:13:08.265Z,25.48
2022-12-06T03:15:56.425Z,23.25
2022-12-06T03:18:35.115Z,25.45
2022-12-06T03:21:06.687Z,28.67
2022-12-06T03:23:36.915Z,26.23
2022-12-06T03:26:04.596Z,27.98
2022-12-06T03:28:31.292Z,24.75
2022-12-06T03:30:59.862Z,35.75
2022-12-06T03:33:28.085Z,27.05
2022-12-06T03:35:55.707Z,30.27
2022-12-06T03:38:32.354Z,28.70
2022-12-06T03:41:01.394Z,30.17
2022-12-06T03:43:28.011Z,28.13
2022-12-06T03:46:13.642Z,28.90
2022-12-06T03:48:43.543Z,27.20
2022-12-06T03:51:33.594Z,25.70
2022-12-06T03:54:02.070Z,30.70
2022-12-06T03:56:28.992Z,29.13
2022-12-06T03:59:04.176Z,27.73
2022-12-06T04:01:30.770Z,28.33
2022-12-06T04:03:57.672Z,28.83
2022-12-06T04:06:27.509Z,28.70
2022-12-06T04:09:16.040Z,29.10
2022-12-06T04:11:42.830Z,30.25
2022-12-06T04:14:09.659Z,25.98
2022-12-06T04:16:55.018Z,30.70
2022-12-06T04:19:21.579Z,28.65
2022-12-06T04:22:10.879Z,26.80
2022-12-06T04:24:37.419Z,29.63
2022-12-06T04:27:42.709Z,25.25
2022-12-06T04:30:28.147Z,30.65
2022-12-06T04:33:14.259Z,32.45
2022-12-06T04:36:01.575Z,26.33
2022-12-06T04:38:41.554Z,25.33
2022-12-06T04:41:12.365Z,26.33
2022-12-06T04:43:44.736Z,30.98
2022-12-06T04:46:12.642Z,26.10
2022-12-06T04:48:41.907Z,25.90
2022-12-06T04:51:15.579Z,26.70
2022-12-06T04:53:46.618Z,25.73
2022-12-06T04:56:18.106Z,27.90
2022-12-06T04:58:58.207Z,25.45
2022-12-06T05:01:24.804Z,29.85
2022-12-06T05:03:51.453Z,27.92
2022-12-06T05:06:18.077Z,25.50
2022-12-06T05:08:47.664Z,24.05
2022-12-06T05:11:14.197Z,29.58
2022-12-06T05:13:45.901Z,28.33
2022-12-06T05:16:12.740Z,31.90
2022-12-06T05:18:42.098Z,23.58
2022-12-06T05:21:16.143Z,33.67
2022-12-06T05:23:42.972Z,24.90
2022-12-06T05:26:16.955Z,28.25
2022-12-06T05:28:43.923Z,27.98
2022-12-06T05:31:14.672Z,29.33
2022-12-06T05:33:41.558Z,27.33
2022-12-06T05:36:08.916Z,24.55
2022-12-06T05:38:35.946Z,26.17
2022-12-06T05:41:03.067Z,28.70
2022-12-06T05:43:29.700Z,27.60
2022-12-06T05:45:56.662Z,28.83
2022-12-06T05:48:25.989Z,24.58
2022-12-06T05:50:53.868Z,28.40
2022-12-06T05:53:21.035Z,28.25
2022-12-06T05:55:48.044Z,30.20
2022-12-06T05:58:15.165Z,25.33
2022-12-06T06:00:41.721Z,34.78
2022-12-06T06:03:08.419Z,27.17
2022-12-06T06:05:35.039Z,23.88
2022-12-06T06:08:01.697Z,27.20
2022-12-06T06:10:28.526Z,25.70
2022-12-06T06:12:55.046Z,26.75
2022-12-06T06:15:21.663Z,28.25
2022-12-06T06:17:48.336Z,29.00
2022-12-06T06:20:15.057Z,24.58
2022-12-06T06:22:42.564Z,25.70
2022-12-06T06:25:09.401Z,26.30
2022-12-06T06:27:39.749Z,30.00
2022-12-06T06:30:07.391Z,24.42
2022-12-06T06:32:33.989Z,27.48
2022-12-06T06:35:00.768Z,26.27
2022-12-06T06:37:27.571Z,25.63
2022-12-06T06:39:56.843Z,27.52
2022-12-06T06:42:26.252Z,25.17
2022-12-06T06:44:54.732Z,29.42
2022-12-06T06:47:22.076Z,28.48
2022-12-06T06:49:48.645Z,27.02
2022-12-06T06:52:15.403Z,35.00
2022-12-06T06:54:42.010Z,28.38
2022-12-06T06:57:12.881Z,27.05
2022-12-06T06:59:43.192Z,27.35
2022-12-06T07:02:12.139Z,28.50
2022-12-06T07:04:38.712Z,33.42
2022-12-06T07:07:05.269Z,32.55
2022-12-06T07:09:31.744Z,32.67
2022-12-06T07:11:58.243Z,30.25
2022-12-06T07:14:24.721Z,34.40
2022-12-06T07:16:51.327Z,33.53
2022-12-06T07:19:17.889Z,30.52
2022-12-06T07:21:44.361Z,30.25
2022-12-06T07:24:10.816Z,31.58
2022-12-06T07:26:37.494Z,31.65
2022-12-06T07:29:04.152Z,42.03
2022-12-06T07:31:31.155Z,29.00
2022-12-06T07:33:58.960Z,35.20
2022-12-06T07:36:26.077Z,28.75
2022-12-06T07:38:54.949Z,31.02
2022-12-06T07:41:41.593Z,31.75
2022-12-06T07:44:28.549Z,31.98
2022-12-06T07:46:55.557Z,32.92
2022-12-06T07:49:22.127Z,32.53
2022-12-06T07:51:51.212Z,35.13
2022-12-06T07:54:17.767Z,32.47
2022-12-06T07:56:44.633Z,29.42
2022-12-06T07:59:11.680Z,32.65
2022-12-06T08:01:38.656Z,32.38
2022-12-06T08:04:05.574Z,31.77
2022-12-06T08:06:32.876Z,31.30
2022-12-06T08:08:59.675Z,29.45
2022-12-06T08:11:26.453Z,31.48
2022-12-06T08:13:58.668Z,31.00
2022-12-06T08:16:25.195Z,28.83
2022-12-06T08:18:52.779Z,31.95
2022-12-06T08:21:19.317Z,28.23
2022-12-06T08:23:45.806Z,24.15
2022-12-06T08:26:13.978Z,28.52
2022-12-06T08:28:52.523Z,25.05
2022-12-06T08:31:20.753Z,28.15
2022-12-06T08:33:47.340Z,27.10
2022-12-06T08:36:15.150Z,28.15
2022-12-06T08:38:41.940Z,21.48
2022-12-06T08:41:28.715Z,19.60
2022-12-06T08:43:55.876Z,25.70
2022-12-06T08:46:22.734Z,20.05
2022-12-06T08:48:49.309Z,20.77
2022-12-06T08:51:17.780Z,23.88
2022-12-06T08:53:44.324Z,23.25
2022-12-06T08:56:10.920Z,19.88
2022-12-06T08:58:37.503Z,20.52
2022-12-06T09:01:14.213Z,18.58
2022-12-06T09:03:40.864Z,19.27
2022-12-06T09:06:07.790Z,17.80
2022-12-06T09:08:34.726Z,20.02
2022-12-06T09:11:01.203Z,18.35
2022-12-06T09:13:27.756Z,21.90
2022-12-06T09:15:54.300Z,15.25
2022-12-06T09:18:20.881Z,17.85
2022-12-06T09:20:50.205Z,19.02
2022-12-06T09:23:19.682Z,18.98
2022-12-06T09:25:46.196Z,16.65
2022-12-06T09:28:13.531Z,22.92
2022-12-06T09:30:40.073Z,18.73
2022-12-06T09:33:06.629Z,22.05
2022-12-06T09:35:33.858Z,19.45
2022-12-06T09:38:06.865Z,16.83
2022-12-06T09:40:39.770Z,17.23
2022-12-06T09:43:09.083Z,16.88
2022-12-06T09:45:44.951Z,17.90
2022-12-06T09:48:30.162Z,16.73
2022-12-06T09:51:11.660Z,15.85
2022-12-06T09:53:47.267Z,14.23
2022-12-06T09:56:35.748Z,13.00
2022-12-06T09:59:02.228Z,14.13
2022-12-06T10:01:40.913Z,14.60
2022-12-06T10:04:26.214Z,14.50
2022-12-06T10:06:58.622Z,15.27
2022-12-06T10:09:33.985Z,13.90
2022-12-06T10:12:09.841Z,16.58
2022-12-06T10:14:39.101Z,15.70
2022-12-06T10:17:13.977Z,16.17
2022-12-06T10:19:40.474Z,19.10
2022-12-06T10:22:07.290Z,17.38
2022-12-06T10:24:52.647Z,17.23
2022-12-06T10:27:31.085Z,15.98
2022-12-06T10:30:04.044Z,15.82
2022-12-06T10:32:38.661Z,17.05
2022-12-06T10:35:13.707Z,19.42
2022-12-06T10:37:43.305Z,16.08
2022-12-06T10:40:16.767Z,18.17
2022-12-06T10:42:46.711Z,20.88
2022-12-06T10:45:41.178Z,23.48
2022-12-06T10:48:13.552Z,22.00
2022-12-06T10:50:48.508Z,20.27
2022-12-06T10:53:18.737Z,20.30
2022-12-06T10:55:52.432Z,19.73
2022-12-06T10:58:37.602Z,19.65
2022-12-06T11:01:09.671Z,22.38
2022-12-06T11:03:44.838Z,19.70
2022-12-06T11:06:19.057Z,21.65
2022-12-06T11:08:57.814Z,21.02
2022-12-06T11:11:27.031Z,22.20
2022-12-06T11:13:58.721Z,23.08
2022-12-06T11:16:33.621Z,22.05
2022-12-06T11:19:19.247Z,24.05
2022-12-06T11:22:16.666Z,25.27
2022-12-06T11:24:48.994Z,18.75
2022-12-06T11:27:32.388Z,19.70
2022-12-06T11:29:59.835Z,19.67
2022-12-06T11:32:31.859Z,20.13
2022-12-06T11:35:01.441Z,22.40
2022-12-06T11:37:29.526Z,21.70
2022-12-06T11:40:21.395Z,19.05
2022-12-06T11:42:48.465Z,22.55
2022-12-06T11:45:34.492Z,25.02
2022-12-06T11:48:19.942Z,23.00
2022-12-06T11:50:47.293Z,25.27
2022-12-06T11:53:19.255Z,21.50
2022-12-06T11:55:53.744Z,21.75
2022-12-06T11:58:27.395Z,22.90
2022-12-06T12:01:02.905Z,19.17
2022-12-06T12:03:36.230Z,20.30
2022-12-06T12:06:14.983Z,23.23
2022-12-06T12:09:07.412Z,20.63
2022-12-06T12:14:11.769Z,19.38
2022-12-06T12:16:46.766Z,20.23
2022-12-06T12:19:27.856Z,19.45
2022-12-06T12:21:57.386Z,21.70
2022-12-06T12:27:33.153Z,17.90
2022-12-06T12:30:18.639Z,17.85
2022-12-06T12:32:45.741Z,19.42
2022-12-06T12:35:28.681Z,20.88
2022-12-06T12:37:57.167Z,21.67
2022-12-06T12:40:33.930Z,18.38
2022-12-06T12:43:05.486Z,19.40
2022-12-06T12:45:43.583Z,15.43
2022-12-06T12:48:27.223Z,19.35
2022-12-06T12:50:55.235Z,21.08
2022-12-06T12:53:40.620Z,18.63
2022-12-06T12:56:07.374Z,21.70
2022-12-06T12:58:36.152Z,18.83
2022-12-06T13:01:05.962Z,21.25
2022-12-06T13:03:50.698Z,22.48
2022-12-06T13:06:42.449Z,21.30
2022-12-06T13:09:34.509Z,20.27
2022-12-06T13:12:07.322Z,19.17
2022-12-06T13:14:46.929Z,18.35
2022-12-06T13:17:15.448Z,22.15
2022-12-06T13:19:51.726Z,20.80
2022-12-06T13:22:25.739Z,24.85
2022-12-06T13:24:58.956Z,22.42
2022-12-06T13:27:26.533Z,20.30
2022-12-06T13:29:59.631Z,23.00
2022-12-06T13:32:40.951Z,23.48
2022-12-06T13:35:13.478Z,20.75
2022-12-06T13:37:58.123Z,18.30
2022-12-06T13:40:47.610Z,26.35
2022-12-06T13:43:27.763Z,22.23
2022-12-06T13:45:55.896Z,19.42
2022-12-06T13:48:27.780Z,27.02
2022-12-06T13:51:01.504Z,22.42
2022-12-06T13:53:31.880Z,20.02
2022-12-06T13:56:02.447Z,20.48
2022-12-06T13:58:28.960Z,21.58
2022-12-06T14:00:58.960Z,21.38
2022-12-06T14:03:29.870Z,22.52
2022-12-06T14:08:47.049Z,22.60
2022-12-06T14:11:16.649Z,20.83
2022-12-06T14:14:08.067Z,23.38
2022-12-06T14:16:41.869Z,23.30
2022-12-06T14:19:16.752Z,22.02
2022-12-06T14:21:56.385Z,26.67
2022-12-06T14:24:32.027Z,22.50
2022-12-06T14:27:05.712Z,23.42
2022-12-06T14:29:33.178Z,25.90
2022-12-06T14:31:59.694Z,26.48
2022-12-06T14:34:31.036Z,25.15
2022-12-06T14:37:01.557Z,25.42
2022-12-06T14:39:37.868Z,25.80
2022-12-06T14:42:33.810Z,22.98
2022-12-06T14:45:03.429Z,24.00
2022-12-06T14:47:30.108Z,26.48
2022-12-06T14:50:25.013Z,31.48
2022-12-06T14:53:06.839Z,31.45
2022-12-06T14:55:34.885Z,30.48
2022-12-06T14:58:35.057Z,32.97
2022-12-06T15:01:03.944Z,30.67
2022-12-06T15:03:31.038Z,33.13
2022-12-06T15:06:19.365Z,31.92
2022-12-06T15:11:47.095Z,33.70
2022-12-06T15:14:24.213Z,34.03
2022-12-06T15:17:02.156Z,32.40
2022-12-06T15:19:36.687Z,33.92
2022-12-06T15:22:09.600Z,41.80
2022-12-06T15:24:37.998Z,32.45
2022-12-06T15:27:10.424Z,31.73
2022-12-06T15:29:39.978Z,35.80
2022-12-06T15:32:06.879Z,34.92
2022-12-06T15:34:36.363Z,33.17
2022-12-06T15:37:36.934Z,37.30
2022-12-06T15:39:49.780Z,38.67
2022-12-06T15:42:18.544Z,32.97
2022-12-06T15:44:50.071Z,33.15
2022-12-06T15:47:19.993Z,40.22
2022-12-06T15:49:46.908Z,34.85
2022-12-06T15:52:17.338Z,37.40
2022-12-06T15:54:46.789Z,35.83
2022-12-06T15:57:16.305Z,37.92
2022-12-06T15:59:48.260Z,36.50
2022-12-06T16:02:16.242Z,37.17
2022-12-06T16:04:52.166Z,35.05
2022-12-06T16:07:21.865Z,35.10
2022-12-06T16:09:51.455Z,36.35
2022-12-06T16:12:18.150Z,36.28
2022-12-06T16:14:44.669Z,39.42
2022-12-06T16:17:11.172Z,38.90
2022-12-06T16:19:56.775Z,41.75
2022-12-06T16:22:45.979Z,40.83
2022-12-06T16:25:12.452Z,39.35
2022-12-06T16:27:42.025Z,40.25
2022-12-06T16:30:09.265Z,37.33
2022-12-06T16:32:35.760Z,38.88
2022-12-06T16:35:02.515Z,43.55
2022-12-06T16:37:29.296Z,38.65
2022-12-06T16:39:55.774Z,44.05
2022-12-06T16:42:24.598Z,41.70
2022-12-06T16:44:52.872Z,46.90
2022-12-06T16:49:47.469Z,40.80
2022-12-06T16:52:16.399Z,38.65
2022-12-06T16:54:43.396Z,40.38
2022-12-06T16:57:20.780Z,40.20
2022-12-06T16:59:47.662Z,40.35
2022-12-06T17:02:23.383Z,40.58
2022-12-06T17:04:49.974Z,37.72
2022-12-06T17:07:16.532Z,49.78
2022-12-06T17:09:46.062Z,45.08
2022-12-06T17:12:15.527Z,47.08
2022-12-06T17:14:49.410Z,42.40
2022-12-06T17:17:16.847Z,43.53
2022-12-06T17:19:43.529Z,49.70
2022-12-06T17:22:14.350Z,40.63
2022-12-06T17:24:40.993Z,41.40
2022-12-06T17:27:09.222Z,46.58
2022-12-06T17:29:39.199Z,42.38
2022-12-06T17:32:08.901Z,44.85
2022-12-06T17:34:46.663Z,41.03
2022-12-06T17:37:13.264Z,43.72
2022-12-06T17:39:40.313Z,43.03
2022-12-06T17:42:25.763Z,41.15
2022-12-06T17:44:52.432Z,42.70
2022-12-06T17:47:21.388Z,43.20
2022-12-06T17:49:48.568Z,42.03
2022-12-06T17:52:15.594Z,45.35
2022-12-06T17:54:42.384Z,44.10
2022-12-06T17:57:11.805Z,46.35
2022-12-06T17:59:41.511Z,45.40
2022-12-06T18:02:20.012Z,40.83
2022-12-06T18:04:47.588Z,42.35
2022-12-06T18:07:14.859Z,45.88
2022-12-06T18:09:41.702Z,39.80
2022-12-06T18:12:09.054Z,43.42
2022-12-06T18:14:35.596Z,39.38
2022-12-06T18:17:03.216Z,42.08
2022-12-06T18:19:29.706Z,44.85
2022-12-06T18:21:56.500Z,46.45
2022-12-06T18:24:26.709Z,46.15
2022-12-06T18:26:55.920Z,46.90
2022-12-06T18:29:23.556Z,39.08
2022-12-06T18:31:54.542Z,40.65
2022-12-06T18:34:21.377Z,43.97
2022-12-06T18:36:47.886Z,44.10
2022-12-06T18:39:16.340Z,40.80
2022-12-06T18:41:43.688Z,49.85
2022-12-06T18:44:10.549Z,42.35
2022-12-06T18:46:39.081Z,38.65
2022-12-06T18:49:06.166Z,41.03
2022-12-06T18:51:34.244Z,39.47
2022-12-06T18:54:02.469Z,43.75
2022-12-06T18:56:33.134Z,43.35
2022-12-06T18:59:04.122Z,38.75
2022-12-06T19:01:34.918Z,42.65
2022-12-06T19:04:05.501Z,42.63
2022-12-06T19:06:35.957Z,43.70
2022-12-06T19:09:05.091Z,41.22
2022-12-06T19:11:33.834Z,41.80
2022-12-06T19:14:00.595Z,44.30
2022-12-06T19:16:36.465Z,40.90
2022-12-06T19:19:04.320Z,44.33
2022-12-06T19:21:31.325Z,45.63
2022-12-06T19:24:00.954Z,44.40
2022-12-06T19:26:27.873Z,44.70
2022-12-06T19:28:57.069Z,45.70
2022-12-06T19:31:23.733Z,44.42
2022-12-06T19:33:50.997Z,47.53
2022-12-06T19:36:21.148Z,44.03
2022-12-06T19:38:47.686Z,49.90
2022-12-06T19:41:15.671Z,44.75
2022-12-06T19:44:01.165Z,41.13
2022-12-06T19:46:29.194Z,41.38
2022-12-06T19:48:56.561Z,39.47
2022-12-06T19:51:23.560Z,42.13
2022-12-06T19:53:50.405Z,39.00
2022-12-06T19:56:19.916Z,42.58
2022-12-06T19:58:49.458Z,39.97
2022-12-06T20:01:25.116Z,41.17
2022-12-06T20:03:54.584Z,44.45
2022-12-06T20:06:22.390Z,52.78
2022-12-06T20:08:49.421Z,43.05
2022-12-06T20:11:44.286Z,45.88
2022-12-06T20:14:16.353Z,48.92
2022-12-06T20:19:14.146Z,47.15
2022-12-06T20:21:41.660Z,53.20
2022-12-06T20:24:09.312Z,51.13
2022-12-06T20:26:36.005Z,52.90
2022-12-06T20:29:05.550Z,56.33
2022-12-06T20:31:32.261Z,58.85
2022-12-06T20:34:01.826Z,58.22
2022-12-06T20:36:35.041Z,63.42
2022-12-06T20:39:01.940Z,47.72
2022-12-06T20:41:37.238Z,52.60
2022-12-06T20:44:03.863Z,60.22
2022-12-06T20:46:30.967Z,56.45
2022-12-06T20:49:00.439Z,57.92
2022-12-06T20:51:28.027Z,61.22
2022-12-06T20:53:57.538Z,58.15
2022-12-06T20:56:27.010Z,62.30
2022-12-06T20:58:55.337Z,58.83
2022-12-06T21:01:24.053Z,60.13
2022-12-06T21:03:51.356Z,58.97
2022-12-06T21:06:19.192Z,59.08
2022-12-06T21:08:46.073Z,61.92
2022-12-06T21:11:28.259Z,63.15
2022-12-06T21:16:26.574Z,64.88
2022-12-06T21:19:08.926Z,65.55
2022-12-06T21:24:02.872Z,73.70
2022-12-06T21:26:31.320Z,69.90
2022-12-06T21:28:58.969Z,74.90
2022-12-06T21:31:26.819Z,78.82
2022-12-06T21:33:53.448Z,72.22
2022-12-06T21:36:35.057Z,81.13
2022-12-06T21:39:08.045Z,82.68
2022-12-06T21:41:37.043Z,79.43
2022-12-06T21:44:03.625Z,78.25
2022-12-06T21:46:33.260Z,73.55
2022-12-06T21:49:00.285Z,75.32
2022-12-06T21:51:28.701Z,71.60
2022-12-06T21:53:55.303Z,71.07
2022-12-06T21:56:25.370Z,69.85
2022-12-06T21:58:55.523Z,72.07
2022-12-06T22:01:28.109Z,62.60
2022-12-06T22:03:59.328Z,62.80
2022-12-06T22:06:26.441Z,62.53
2022-12-06T22:08:57.101Z,66.88
2022-12-06T22:11:23.777Z,65.00
2022-12-06T22:13:50.706Z,72.05
2022-12-06T22:16:17.707Z,71.57
2022-12-06T22:18:46.188Z,77.55
2022-12-06T22:21:20.425Z,81.88
2022-12-06T22:23:47.619Z,64.50
2022-12-06T22:26:18.018Z,75.18
2022-12-06T22:28:46.304Z,68.95
2022-12-06T22:31:14.931Z,73.45
2022-12-06T22:33:42.001Z,69.95
2022-12-06T22:36:09.034Z,78.18
2022-12-06T22:38:35.642Z,86.13
2022-12-06T22:41:02.622Z,79.78
2022-12-06T22:43:29.734Z,83.80
2022-12-06T22:46:00.944Z,81.20
2022-12-06T22:48:28.706Z,87.57
2022-12-06T22:51:09.498Z,93.45
2022-12-06T22:53:36.171Z,87.55
2022-12-06T22:56:02.828Z,88.82
2022-12-06T22:58:29.453Z,92.68
2022-12-06T23:00:56.087Z,89.03
2022-12-06T23:03:23.034Z,84.72
2022-12-06T23:05:56.646Z,83.70
2022-12-06T23:08:23.340Z,99.18
2022-12-06T23:10:50.011Z,92.20
2022-12-06T23:13:16.609Z,89.18
2022-12-06T23:15:43.172Z,85.90
2022-12-06T23:18:14.215Z,77.65
2022-12-06T23:20:40.772Z,92.97
2022-12-06T23:23:07.237Z,93.97
2022-12-06T23:25:33.778Z,93.53
2022-12-06T23:28:00.324Z,81.28
2022-12-06T23:30:26.757Z,100.90
2022-12-06T23:32:53.288Z,93.38
2022-12-06T23:35:19.875Z,90.22
2022-12-06T23:37:49.956Z,99.25
2022-12-06T23:40:16.579Z,101.32
2022-12-06T23:42:43.148Z,96.30
2022-12-06T23:45:11.600Z,93.78
2022-12-06T23:47:45.531Z,94.35
2022-12-06T23:50:12.075Z,105.90
2022-12-06T23:52:38.764Z,98.90
2022-12-06T23:55:05.502Z,98.97
2022-12-06T23:57:32.680Z,92.90
2022-12-06T23:59:59.474Z,94.80
